sensor_id;sensor_type;location;lat;lon;timestamp;P1;durP1;ratioP1;P2;durP2;ratioP2
36303;SDS011;22335;49.800;8.596;2023-06-26T00:04:03;10.23;;;9.32;;
36303;SDS011;22335;49.800;8.596;2023-06-26T00:10:47;9.93;;;9.10;;
36303;SDS011;22335;49.800;8.596;2023-06-26T00:17:34;10.52;;;9.70;;
36303;SDS011;22335;49.800;8.596;2023-06-26T00:24:19;10.10;;;9.32;;
36303;SDS011;22335;49.800;8.596;2023-06-26T00:31:03;10.07;;;9.18;;
36303;SDS011;22335;49.800;8.596;2023-06-26T00:37:47;10.82;;;9.73;;
36303;SDS011;22335;49.800;8.596;2023-06-26T00:44:31;9.98;;;9.18;;
36303;SDS011;22335;49.800;8.596;2023-06-26T00:51:15;9.65;;;8.93;;
36303;SDS011;22335;49.800;8.596;2023-06-26T00:58:00;10.27;;;9.38;;
36303;SDS011;22335;49.800;8.596;2023-06-26T01:04:43;9.95;;;9.23;;
36303;SDS011;22335;49.800;8.596;2023-06-26T01:11:28;9.90;;;9.10;;
36303;SDS011;22335;49.800;8.596;2023-06-26T01:18:13;11.17;;;10.07;;
36303;SDS011;22335;49.800;8.596;2023-06-26T01:25:02;10.07;;;9.10;;
36303;SDS011;22335;49.800;8.596;2023-06-26T01:32:00;10.20;;;9.30;;
36303;SDS011;22335;49.800;8.596;2023-06-26T01:45:27;9.50;;;8.80;;
36303;SDS011;22335;49.800;8.596;2023-06-26T01:52:19;10.70;;;10.00;;
36303;SDS011;22335;49.800;8.596;2023-06-26T01:59:06;13.18;;;12.02;;
36303;SDS011;22335;49.800;8.596;2023-06-26T02:05:51;12.98;;;12.00;;
36303;SDS011;22335;49.800;8.596;2023-06-26T02:12:36;15.35;;;14.05;;
36303;SDS011;22335;49.800;8.596;2023-06-26T02:19:21;15.77;;;14.57;;
36303;SDS011;22335;49.800;8.596;2023-06-26T02:26:05;14.77;;;13.67;;
36303;SDS011;22335;49.800;8.596;2023-06-26T02:32:50;11.43;;;10.32;;
36303;SDS011;22335;49.800;8.596;2023-06-26T02:39:34;10.30;;;9.40;;
36303;SDS011;22335;49.800;8.596;2023-06-26T03:01:21;10.35;;;9.55;;
36303;SDS011;22335;49.800;8.596;2023-06-26T03:08:05;11.27;;;10.38;;
36303;SDS011;22335;49.800;8.596;2023-06-26T03:14:49;11.60;;;10.75;;
36303;SDS011;22335;49.800;8.596;2023-06-26T03:21:34;11.10;;;10.15;;
36303;SDS011;22335;49.800;8.596;2023-06-26T03:28:18;12.23;;;11.20;;
36303;SDS011;22335;49.800;8.596;2023-06-26T03:35:01;12.15;;;11.23;;
36303;SDS011;22335;49.800;8.596;2023-06-26T03:41:48;11.93;;;10.73;;
36303;SDS011;22335;49.800;8.596;2023-06-26T03:48:31;11.73;;;10.67;;
36303;SDS011;22335;49.800;8.596;2023-06-26T03:55:15;11.95;;;10.85;;
36303;SDS011;22335;49.800;8.596;2023-06-26T04:02:01;16.92;;;11.65;;
36303;SDS011;22335;49.800;8.596;2023-06-26T04:08:45;11.93;;;10.95;;
36303;SDS011;22335;49.800;8.596;2023-06-26T04:15:30;12.93;;;11.57;;
36303;SDS011;22335;49.800;8.596;2023-06-26T04:22:15;12.80;;;11.73;;
36303;SDS011;22335;49.800;8.596;2023-06-26T04:28:59;13.07;;;11.98;;
36303;SDS011;22335;49.800;8.596;2023-06-26T04:35:43;12.80;;;11.70;;
36303;SDS011;22335;49.800;8.596;2023-06-26T04:42:31;12.48;;;11.40;;
36303;SDS011;22335;49.800;8.596;2023-06-26T04:49:14;15.80;;;11.57;;
36303;SDS011;22335;49.800;8.596;2023-06-26T04:55:59;13.80;;;12.60;;
36303;SDS011;22335;49.800;8.596;2023-06-26T05:02:43;12.07;;;11.15;;
36303;SDS011;22335;49.800;8.596;2023-06-26T05:09:27;12.55;;;11.30;;
36303;SDS011;22335;49.800;8.596;2023-06-26T05:16:11;11.75;;;10.73;;
36303;SDS011;22335;49.800;8.596;2023-06-26T05:22:55;12.60;;;11.50;;
36303;SDS011;22335;49.800;8.596;2023-06-26T05:29:40;12.07;;;11.07;;
36303;SDS011;22335;49.800;8.596;2023-06-26T05:36:25;12.93;;;11.60;;
36303;SDS011;22335;49.800;8.596;2023-06-26T05:43:11;14.07;;;12.77;;
36303;SDS011;22335;49.800;8.596;2023-06-26T05:49:56;13.43;;;12.32;;
36303;SDS011;22335;49.800;8.596;2023-06-26T05:56:40;13.57;;;12.23;;
36303;SDS011;22335;49.800;8.596;2023-06-26T06:03:25;14.43;;;13.00;;
36303;SDS011;22335;49.800;8.596;2023-06-26T06:10:09;14.55;;;13.05;;
36303;SDS011;22335;49.800;8.596;2023-06-26T06:16:53;27.30;;;13.00;;
36303;SDS011;22335;49.800;8.596;2023-06-26T06:23:37;13.80;;;12.43;;
36303;SDS011;22335;49.800;8.596;2023-06-26T06:30:21;18.58;;;12.63;;
36303;SDS011;22335;49.800;8.596;2023-06-26T06:37:15;13.88;;;12.43;;
36303;SDS011;22335;49.800;8.596;2023-06-26T06:44:01;12.80;;;11.50;;
36303;SDS011;22335;49.800;8.596;2023-06-26T06:57:28;12.75;;;11.57;;
36303;SDS011;22335;49.800;8.596;2023-06-26T07:04:13;12.15;;;11.00;;
36303;SDS011;22335;49.800;8.596;2023-06-26T07:10:56;11.77;;;10.63;;
36303;SDS011;22335;49.800;8.596;2023-06-26T07:17:40;12.40;;;11.20;;
36303;SDS011;22335;49.800;8.596;2023-06-26T07:24:25;12.15;;;10.88;;
36303;SDS011;22335;49.800;8.596;2023-06-26T07:31:08;12.88;;;11.57;;
36303;SDS011;22335;49.800;8.596;2023-06-26T07:37:51;12.27;;;11.05;;
36303;SDS011;22335;49.800;8.596;2023-06-26T07:44:36;12.60;;;11.43;;
36303;SDS011;22335;49.800;8.596;2023-06-26T07:51:20;12.90;;;11.45;;
36303;SDS011;22335;49.800;8.596;2023-06-26T07:58:03;12.02;;;10.85;;
36303;SDS011;22335;49.800;8.596;2023-06-26T08:04:48;15.77;;;11.20;;
36303;SDS011;22335;49.800;8.596;2023-06-26T08:11:32;11.77;;;10.68;;
36303;SDS011;22335;49.800;8.596;2023-06-26T08:18:15;12.75;;;10.90;;
36303;SDS011;22335;49.800;8.596;2023-06-26T08:25:03;12.52;;;9.70;;
36303;SDS011;22335;49.800;8.596;2023-06-26T08:31:48;13.35;;;10.25;;
36303;SDS011;22335;49.800;8.596;2023-06-26T08:38:31;13.60;;;10.63;;
36303;SDS011;22335;49.800;8.596;2023-06-26T08:45:16;10.27;;;9.38;;
36303;SDS011;22335;49.800;8.596;2023-06-26T08:52:02;11.93;;;10.50;;
36303;SDS011;22335;49.800;8.596;2023-06-26T08:58:52;11.52;;;10.27;;
36303;SDS011;22335;49.800;8.596;2023-06-26T09:05:37;10.73;;;9.73;;
36303;SDS011;22335;49.800;8.596;2023-06-26T09:12:21;10.50;;;9.50;;
36303;SDS011;22335;49.800;8.596;2023-06-26T09:19:05;9.77;;;9.00;;
36303;SDS011;22335;49.800;8.596;2023-06-26T09:25:54;9.43;;;8.70;;
36303;SDS011;22335;49.800;8.596;2023-06-26T09:32:38;9.70;;;8.73;;
36303;SDS011;22335;49.800;8.596;2023-06-26T09:39:22;9.50;;;8.60;;
36303;SDS011;22335;49.800;8.596;2023-06-26T09:46:06;9.20;;;8.50;;
36303;SDS011;22335;49.800;8.596;2023-06-26T09:52:50;9.43;;;8.52;;
36303;SDS011;22335;49.800;8.596;2023-06-26T09:59:34;9.80;;;8.80;;
36303;SDS011;22335;49.800;8.596;2023-06-26T10:06:20;8.97;;;8.27;;
36303;SDS011;22335;49.800;8.596;2023-06-26T10:13:11;9.55;;;8.65;;
36303;SDS011;22335;49.800;8.596;2023-06-26T10:20:01;9.57;;;8.77;;
36303;SDS011;22335;49.800;8.596;2023-06-26T10:26:49;9.88;;;8.75;;
36303;SDS011;22335;49.800;8.596;2023-06-26T10:33:34;9.75;;;8.98;;
36303;SDS011;22335;49.800;8.596;2023-06-26T10:40:23;9.65;;;8.68;;
36303;SDS011;22335;49.800;8.596;2023-06-26T10:47:11;9.18;;;8.45;;
36303;SDS011;22335;49.800;8.596;2023-06-26T10:54:11;9.75;;;8.95;;
36303;SDS011;22335;49.800;8.596;2023-06-26T11:08:06;8.55;;;7.70;;
36303;SDS011;22335;49.800;8.596;2023-06-26T11:14:51;8.95;;;8.15;;
36303;SDS011;22335;49.800;8.596;2023-06-26T11:41:50;9.45;;;8.75;;
36303;SDS011;22335;49.800;8.596;2023-06-26T11:48:35;9.27;;;8.47;;
36303;SDS011;22335;49.800;8.596;2023-06-26T11:55:19;9.05;;;8.25;;
36303;SDS011;22335;49.800;8.596;2023-06-26T12:02:06;8.43;;;7.73;;
36303;SDS011;22335;49.800;8.596;2023-06-26T12:08:52;10.15;;;8.85;;
36303;SDS011;22335;49.800;8.596;2023-06-26T12:15:36;9.43;;;8.27;;
36303;SDS011;22335;49.800;8.596;2023-06-26T12:22:19;9.37;;;8.57;;
36303;SDS011;22335;49.800;8.596;2023-06-26T12:29:04;9.73;;;8.82;;
36303;SDS011;22335;49.800;8.596;2023-06-26T12:35:49;9.38;;;8.50;;
36303;SDS011;22335;49.800;8.596;2023-06-26T12:42:33;9.45;;;8.48;;
36303;SDS011;22335;49.800;8.596;2023-06-26T12:49:17;11.50;;;10.53;;
36303;SDS011;22335;49.800;8.596;2023-06-26T12:56:10;12.55;;;11.25;;
36303;SDS011;22335;49.800;8.596;2023-06-26T13:02:54;10.80;;;9.80;;
36303;SDS011;22335;49.800;8.596;2023-06-26T13:09:40;12.02;;;10.80;;
36303;SDS011;22335;49.800;8.596;2023-06-26T13:16:26;10.45;;;9.43;;
36303;SDS011;22335;49.800;8.596;2023-06-26T13:23:11;10.43;;;9.52;;
36303;SDS011;22335;49.800;8.596;2023-06-26T13:29:56;8.80;;;7.47;;
36303;SDS011;22335;49.800;8.596;2023-06-26T13:36:39;7.05;;;6.45;;
36303;SDS011;22335;49.800;8.596;2023-06-26T13:43:23;6.18;;;5.68;;
36303;SDS011;22335;49.800;8.596;2023-06-26T13:50:09;7.83;;;7.23;;
36303;SDS011;22335;49.800;8.596;2023-06-26T13:56:52;6.60;;;5.60;;
36303;SDS011;22335;49.800;8.596;2023-06-26T14:03:38;6.30;;;5.50;;
36303;SDS011;22335;49.800;8.596;2023-06-26T14:10:24;5.72;;;5.15;;
36303;SDS011;22335;49.800;8.596;2023-06-26T14:17:08;6.15;;;5.63;;
36303;SDS011;22335;49.800;8.596;2023-06-26T14:23:57;5.30;;;4.90;;
36303;SDS011;22335;49.800;8.596;2023-06-26T14:30:42;5.20;;;4.70;;
36303;SDS011;22335;49.800;8.596;2023-06-26T14:37:25;6.60;;;4.93;;
36303;SDS011;22335;49.800;8.596;2023-06-26T14:44:11;5.25;;;4.85;;
36303;SDS011;22335;49.800;8.596;2023-06-26T14:50:56;5.87;;;5.30;;
36303;SDS011;22335;49.800;8.596;2023-06-26T14:57:41;5.03;;;4.63;;
36303;SDS011;22335;49.800;8.596;2023-06-26T15:04:26;6.78;;;5.15;;
36303;SDS011;22335;49.800;8.596;2023-06-26T15:11:10;5.43;;;5.03;;
36303;SDS011;22335;49.800;8.596;2023-06-26T15:17:54;5.90;;;5.03;;
36303;SDS011;22335;49.800;8.596;2023-06-26T15:24:37;5.37;;;4.90;;
36303;SDS011;22335;49.800;8.596;2023-06-26T15:31:22;5.80;;;5.28;;
36303;SDS011;22335;49.800;8.596;2023-06-26T15:38:05;5.03;;;4.63;;
36303;SDS011;22335;49.800;8.596;2023-06-26T15:44:49;6.35;;;4.82;;
36303;SDS011;22335;49.800;8.596;2023-06-26T15:51:34;7.22;;;4.60;;
36303;SDS011;22335;49.800;8.596;2023-06-26T15:58:18;5.20;;;4.32;;
36303;SDS011;22335;49.800;8.596;2023-06-26T16:05:02;6.20;;;5.10;;
36303;SDS011;22335;49.800;8.596;2023-06-26T16:11:47;14.10;;;4.97;;
36303;SDS011;22335;49.800;8.596;2023-06-26T16:18:31;6.93;;;5.00;;
36303;SDS011;22335;49.800;8.596;2023-06-26T16:25:15;5.60;;;4.83;;
36303;SDS011;22335;49.800;8.596;2023-06-26T16:32:00;7.77;;;4.77;;
36303;SDS011;22335;49.800;8.596;2023-06-26T16:38:44;5.90;;;4.30;;
36303;SDS011;22335;49.800;8.596;2023-06-26T16:45:28;6.00;;;4.88;;
36303;SDS011;22335;49.800;8.596;2023-06-26T16:52:13;5.32;;;4.63;;
36303;SDS011;22335;49.800;8.596;2023-06-26T16:58:57;4.97;;;4.53;;
36303;SDS011;22335;49.800;8.596;2023-06-26T17:05:40;7.55;;;4.80;;
36303;SDS011;22335;49.800;8.596;2023-06-26T17:12:25;5.63;;;4.70;;
36303;SDS011;22335;49.800;8.596;2023-06-26T17:19:09;7.97;;;4.70;;
36303;SDS011;22335;49.800;8.596;2023-06-26T17:25:52;5.03;;;4.50;;
36303;SDS011;22335;49.800;8.596;2023-06-26T17:32:39;6.55;;;5.05;;
36303;SDS011;22335;49.800;8.596;2023-06-26T17:39:23;7.65;;;4.65;;
36303;SDS011;22335;49.800;8.596;2023-06-26T17:46:08;5.88;;;4.55;;
36303;SDS011;22335;49.800;8.596;2023-06-26T17:52:53;4.75;;;4.35;;
36303;SDS011;22335;49.800;8.596;2023-06-26T17:59:36;6.15;;;4.95;;
36303;SDS011;22335;49.800;8.596;2023-06-26T18:06:20;9.63;;;6.38;;
36303;SDS011;22335;49.800;8.596;2023-06-26T18:13:06;5.20;;;4.80;;
36303;SDS011;22335;49.800;8.596;2023-06-26T18:19:50;5.63;;;4.75;;
36303;SDS011;22335;49.800;8.596;2023-06-26T18:26:33;5.50;;;4.85;;
36303;SDS011;22335;49.800;8.596;2023-06-26T18:33:18;4.82;;;4.30;;
36303;SDS011;22335;49.800;8.596;2023-06-26T18:46:48;6.25;;;4.82;;
36303;SDS011;22335;49.800;8.596;2023-06-26T18:53:32;4.90;;;4.50;;
36303;SDS011;22335;49.800;8.596;2023-06-26T19:00:17;4.30;;;3.90;;
36303;SDS011;22335;49.800;8.596;2023-06-26T19:07:01;4.60;;;3.97;;
36303;SDS011;22335;49.800;8.596;2023-06-26T19:13:46;6.03;;;4.38;;
36303;SDS011;22335;49.800;8.596;2023-06-26T19:20:30;6.05;;;4.90;;
36303;SDS011;22335;49.800;8.596;2023-06-26T19:27:13;7.32;;;4.97;;
36303;SDS011;22335;49.800;8.596;2023-06-26T19:33:59;4.93;;;4.43;;
36303;SDS011;22335;49.800;8.596;2023-06-26T19:40:43;5.75;;;4.90;;
36303;SDS011;22335;49.800;8.596;2023-06-26T19:47:26;4.82;;;4.30;;
36303;SDS011;22335;49.800;8.596;2023-06-26T19:54:11;5.70;;;4.40;;
36303;SDS011;22335;49.800;8.596;2023-06-26T20:00:54;5.35;;;4.70;;
36303;SDS011;22335;49.800;8.596;2023-06-26T20:07:38;5.32;;;4.60;;
36303;SDS011;22335;49.800;8.596;2023-06-26T20:14:23;5.70;;;4.47;;
36303;SDS011;22335;49.800;8.596;2023-06-26T20:27:50;5.88;;;4.85;;
36303;SDS011;22335;49.800;8.596;2023-06-26T20:34:35;5.45;;;5.05;;
36303;SDS011;22335;49.800;8.596;2023-06-26T20:48:03;6.60;;;4.97;;
36303;SDS011;22335;49.800;8.596;2023-06-26T20:54:49;9.77;;;5.10;;
36303;SDS011;22335;49.800;8.596;2023-06-26T21:01:33;6.53;;;5.65;;
36303;SDS011;22335;49.800;8.596;2023-06-26T21:08:17;8.90;;;5.07;;
36303;SDS011;22335;49.800;8.596;2023-06-26T21:15:02;5.20;;;4.70;;
36303;SDS011;22335;49.800;8.596;2023-06-26T21:21:47;5.18;;;4.65;;
36303;SDS011;22335;49.800;8.596;2023-06-26T21:28:30;7.25;;;5.10;;
36303;SDS011;22335;49.800;8.596;2023-06-26T21:35:15;5.35;;;4.85;;
36303;SDS011;22335;49.800;8.596;2023-06-26T21:42:05;6.43;;;4.85;;
36303;SDS011;22335;49.800;8.596;2023-06-26T21:48:50;5.22;;;4.72;;
36303;SDS011;22335;49.800;8.596;2023-06-26T21:55:35;6.60;;;5.05;;
36303;SDS011;22335;49.800;8.596;2023-06-26T22:02:19;5.22;;;4.78;;
36303;SDS011;22335;49.800;8.596;2023-06-26T22:09:03;5.38;;;4.80;;
36303;SDS011;22335;49.800;8.596;2023-06-26T22:22:32;11.30;;;4.70;;
36303;SDS011;22335;49.800;8.596;2023-06-26T22:29:16;7.57;;;5.07;;
36303;SDS011;22335;49.800;8.596;2023-06-26T22:36:02;5.63;;;4.90;;
36303;SDS011;22335;49.800;8.596;2023-06-26T22:42:46;6.72;;;4.80;;
36303;SDS011;22335;49.800;8.596;2023-06-26T22:49:30;6.47;;;5.35;;
36303;SDS011;22335;49.800;8.596;2023-06-26T22:56:14;7.53;;;5.18;;
36303;SDS011;22335;49.800;8.596;2023-06-26T23:02:58;5.72;;;5.15;;
36303;SDS011;22335;49.800;8.596;2023-06-26T23:09:41;5.45;;;5.05;;
36303;SDS011;22335;49.800;8.596;2023-06-26T23:16:26;7.78;;;4.72;;
36303;SDS011;22335;49.800;8.596;2023-06-26T23:23:10;5.53;;;5.10;;
36303;SDS011;22335;49.800;8.596;2023-06-26T23:29:54;5.63;;;5.15;;
36303;SDS011;22335;49.800;8.596;2023-06-26T23:36:38;5.80;;;5.28;;
36303;SDS011;22335;49.800;8.596;2023-06-26T23:50:07;6.57;;;5.00;;
